Waynoka, Oklahoma
Current Conditions -  °F | °C
As of 2:15 PM on Wednesday 26 Nov 2014 (Local Time) from KAVK Reporting Station
Clear Clear  
Wind Chill: 52°   Ceiling: Unl
Heat Index: 52°   Visibility: 10mi
Dew Point: 23°   Wind: 24mph
Humidity: 33%   Direction: 350°N
Pressure: 30.23"   Gusts: 31mph
Location:  36.58°N, 98.88°W
Report Text: KAVK 262015Z AUTO 35021G27KT 10SM CLR 11/M05 A3023 RMK AO2
Loading
Personal Weather Stations






























Interactive Weather Map New forecast layout! Learn more

10-Day Weather Forecast

Advertisements
Track Severe Weather on mobile